Time;durP1;ratioP1;P1;durP2;ratioP2;P2;SDS_P1;SDS_P2;PMS_P1;PMS_P2;Temp;Humidity;BMP_temperature;BMP_pressure;BME280_temperature;BME280_humidity;BME280_pressure;Samples;Min_cycle;Max_cycle;Signal;HPM_P1;HPM_P2
2023/08/02 00:01:18;;;;;;;8.52;3.58;;;;;16.20;99600.00;;;;10267542;28;21758;-76
2023/08/02 00:06:20;;;;;;;11.82;4.20;;;;;16.30;99596.00;;;;10259297;28;20222;-77
2023/08/02 00:11:21;;;;;;;10.57;3.67;;;;;16.30;99595.00;;;;10287758;28;20518;-76
2023/08/02 00:16:22;;;;;;;12.57;3.45;;;;;16.30;99599.00;;;;10289173;28;20277;-76
2023/08/02 00:21:24;;;;;;;10.25;4.30;;;;;16.30;99593.00;;;;10269022;28;20999;-76
2023/08/02 00:26:27;;;;;;;7.25;3.00;;;;;16.30;99594.00;;;;10290281;23;20292;-77
2023/08/02 00:31:28;;;;;;;6.88;2.95;;;;;16.30;99595.00;;;;10266848;28;21272;-76
2023/08/02 00:36:30;;;;;;;9.43;3.78;;;;;16.30;99581.00;;;;10263767;28;20211;-76
2023/08/02 00:41:35;;;;;;;5.05;3.20;;;;;16.30;99561.00;;;;10262469;28;20275;-76
2023/08/02 00:46:54;;;;;;;10.38;2.92;;;;;16.30;99539.00;;;;10231354;28;20204;-77
2023/08/02 00:51:56;;;;;;;7.18;3.20;;;;;16.30;99534.00;;;;10268272;28;20277;-77
2023/08/02 00:56:58;;;;;;;3.67;2.90;;;;;16.30;99542.00;;;;10249076;28;20215;-77
2023/08/02 01:02:00;;;;;;;12.50;3.15;;;;;16.20;99538.00;;;;10252565;28;20242;-76
2023/08/02 01:07:02;;;;;;;7.57;3.17;;;;;16.20;99551.00;;;;10253197;28;20441;-76
2023/08/02 01:12:10;;;;;;;5.47;2.90;;;;;16.20;99530.00;;;;10254130;28;20211;-77
2023/08/02 01:17:13;;;;;;;4.93;2.95;;;;;16.20;99505.00;;;;10254816;28;20204;-77
2023/08/02 01:22:14;;;;;;;4.35;2.95;;;;;16.30;99489.00;;;;10256987;28;20849;-77
2023/08/02 01:27:23;;;;;;;4.78;3.17;;;;;16.30;99481.00;;;;10238995;28;20285;-76
2023/08/02 01:32:24;;;;;;;6.10;3.28;;;;;16.30;99465.00;;;;10256169;28;20215;-77
2023/08/02 01:37:26;;;;;;;4.55;3.35;;;;;16.30;99456.00;;;;10272371;28;20909;-77
2023/08/02 01:42:27;;;;;;;10.20;3.67;;;;;16.30;99462.00;;;;10273482;28;20231;-77
2023/08/02 01:47:29;;;;;;;7.53;3.42;;;;;16.20;99443.00;;;;10274833;28;20243;-77
2023/08/02 01:52:30;;;;;;;6.82;3.40;;;;;16.20;99439.00;;;;10273810;28;20552;-78
2023/08/02 01:57:31;;;;;;;8.27;3.38;;;;;16.20;99429.00;;;;10275414;28;20214;-77
2023/08/02 02:02:33;;;;;;;5.32;3.67;;;;;16.20;99416.00;;;;10277001;28;20231;-77
2023/08/02 02:07:34;;;;;;;6.28;3.30;;;;;16.10;99389.00;;;;10246316;28;20683;-77
2023/08/02 02:12:35;;;;;;;8.15;3.65;;;;;16.00;99374.00;;;;10246087;28;20298;-77
2023/08/02 02:17:39;;;;;;;6.43;4.10;;;;;15.90;99359.00;;;;10248595;28;20206;-77
2023/08/02 02:22:40;;;;;;;3.90;3.50;;;;;15.90;99352.00;;;;10277791;28;20224;-77
2023/08/02 02:27:42;;;;;;;6.25;3.55;;;;;15.80;99359.00;;;;10258120;28;20382;-76
2023/08/02 02:32:43;;;;;;;5.30;3.72;;;;;15.80;99351.00;;;;10277331;28;20208;-76
2023/08/02 02:37:44;;;;;;;10.15;4.40;;;;;15.70;99380.00;;;;10259268;28;20333;-77
2023/08/02 02:42:46;;;;;;;7.43;4.07;;;;;15.80;99396.00;;;;10255508;28;20278;-77
2023/08/02 02:47:47;;;;;;;9.48;4.22;;;;;15.80;99367.00;;;;10259464;28;20306;-77
2023/08/02 02:52:48;;;;;;;8.82;4.50;;;;;15.80;99307.00;;;;10273853;28;22065;-77
2023/08/02 02:57:50;;;;;;;9.20;4.47;;;;;15.80;99275.00;;;;10271479;28;20207;-76
2023/08/02 03:02:52;;;;;;;11.50;5.03;;;;;15.80;99246.00;;;;10268085;28;21696;-77
2023/08/02 03:07:53;;;;;;;8.20;4.32;;;;;15.70;99275.00;;;;10232530;28;20211;-76
2023/08/02 03:12:54;;;;;;;8.05;4.63;;;;;15.70;99286.00;;;;10250070;28;20239;-75
2023/08/02 03:17:56;;;;;;;6.05;4.32;;;;;15.70;99273.00;;;;10245484;28;20674;-76
2023/08/02 03:22:57;;;;;;;8.43;5.60;;;;;15.70;99226.00;;;;10268430;28;20282;-77
2023/08/02 03:27:59;;;;;;;7.05;4.30;;;;;15.60;99212.00;;;;10249237;28;21579;-77
2023/08/02 03:33:00;;;;;;;5.85;4.80;;;;;15.60;99228.00;;;;10267015;28;20830;-77
2023/08/02 03:38:01;;;;;;;9.13;5.13;;;;;15.60;99200.00;;;;10272734;28;20672;-77
2023/08/02 03:43:03;;;;;;;9.68;4.90;;;;;15.60;99176.00;;;;10272673;28;20726;-76
2023/08/02 03:48:04;;;;;;;9.45;5.55;;;;;15.50;99138.00;;;;10272068;28;20231;-76
2023/08/02 03:53:06;;;;;;;6.50;5.00;;;;;15.50;99130.00;;;;10273601;28;21480;-77
2023/08/02 03:58:07;;;;;;;7.07;4.72;;;;;15.50;99116.00;;;;10256384;28;20774;-76
2023/08/02 04:03:08;;;;;;;8.98;5.03;;;;;15.60;99102.00;;;;10275983;28;20266;-77
2023/08/02 04:08:10;;;;;;;7.63;4.70;;;;;15.60;99085.00;;;;10276705;28;21192;-77
2023/08/02 04:13:11;;;;;;;5.60;4.40;;;;;15.60;99065.00;;;;10236995;28;20208;-77
2023/08/02 04:18:12;;;;;;;7.22;4.85;;;;;15.60;99055.00;;;;10255339;28;20227;-77
2023/08/02 04:23:14;;;;;;;6.35;4.63;;;;;15.60;99055.00;;;;10269619;28;20593;-77
2023/08/02 04:28:15;;;;;;;8.10;4.50;;;;;15.60;99039.00;;;;10254449;28;20207;-78
2023/08/02 04:33:17;;;;;;;5.90;5.07;;;;;15.60;99024.00;;;;10257749;28;20275;-77
2023/08/02 04:38:18;;;;;;;6.30;4.72;;;;;15.60;99011.00;;;;10258323;28;21009;-77
2023/08/02 04:43:20;;;;;;;8.10;5.00;;;;;15.60;98987.00;;;;10265023;28;20548;-76
2023/08/02 04:48:21;;;;;;;6.57;4.50;;;;;15.70;98972.00;;;;10275754;28;20203;-78
2023/08/02 04:53:23;;;;;;;6.45;4.45;;;;;15.70;98968.00;;;;10274490;28;20334;-77
2023/08/02 04:58:24;;;;;;;5.90;4.38;;;;;15.70;98957.00;;;;10254030;28;20325;-78
2023/08/02 05:03:25;;;;;;;4.65;4.20;;;;;15.70;98946.00;;;;10266590;28;20230;-78
2023/08/02 05:08:32;;;;;;;5.38;3.72;;;;;15.70;98941.00;;;;10234539;28;20780;-78
2023/08/02 05:13:34;;;;;;;4.05;3.65;;;;;15.80;98931.00;;;;10266783;28;20505;-77
2023/08/02 05:18:35;;;;;;;4.55;3.35;;;;;15.80;98908.00;;;;10267420;28;20815;-77
2023/08/02 05:23:37;;;;;;;3.60;2.97;;;;;15.80;98890.00;;;;10250977;28;21456;-79
2023/08/02 05:28:39;;;;;;;5.50;3.00;;;;;15.90;98864.00;;;;10269608;28;20299;-78
2023/08/02 05:33:41;;;;;;;3.50;3.13;;;;;16.00;98853.00;;;;10251261;28;20212;-76
2023/08/02 05:38:42;;;;;;;3.28;2.20;;;;;16.00;98836.00;;;;10250041;28;20210;-77
2023/08/02 05:43:44;;;;;;;2.78;2.47;;;;;16.00;98826.00;;;;10256317;28;20273;-78
2023/08/02 05:48:46;;;;;;;2.35;2.15;;;;;16.00;98815.00;;;;10277818;28;20238;-77
2023/08/02 05:53:48;;;;;;;4.07;1.80;;;;;16.20;98799.00;;;;10276192;28;20215;-77
2023/08/02 05:58:49;;;;;;;1.85;1.67;;;;;16.30;98788.00;;;;10256870;28;20598;-76
2023/08/02 06:03:51;;;;;;;1.65;1.27;;;;;16.50;98773.00;;;;10258294;28;20203;-76
2023/08/02 06:08:52;;;;;;;3.22;1.15;;;;;16.50;98760.00;;;;10258165;28;20918;-77
2023/08/02 06:13:53;;;;;;;1.20;1.10;;;;;16.50;98760.00;;;;10263453;28;20234;-78
2023/08/02 06:18:55;;;;;;;3.35;0.80;;;;;16.60;98757.00;;;;10262446;28;21399;-77
2023/08/02 06:23:56;;;;;;;2.90;0.73;;;;;16.70;98744.00;;;;10243665;28;20223;-77
2023/08/02 06:28:58;;;;;;;0.82;0.60;;;;;16.70;98737.00;;;;10261701;28;20554;-76
2023/08/02 06:33:59;;;;;;;0.60;0.60;;;;;16.80;98732.00;;;;10276358;28;20803;-77
2023/08/02 06:39:00;;;;;;;1.75;0.55;;;;;17.10;98723.00;;;;10261870;28;21416;-77
2023/08/02 06:44:03;;;;;;;1.17;0.50;;;;;17.30;98712.00;;;;10258017;28;20214;-78
2023/08/02 06:49:04;;;;;;;1.80;0.80;;;;;17.50;98710.00;;;;10256316;28;20261;-78
2023/08/02 06:54:05;;;;;;;0.55;0.38;;;;;17.50;98698.00;;;;10278061;28;20200;-77
2023/08/02 06:59:07;;;;;;;0.50;0.35;;;;;18.00;98695.00;;;;10275828;28;20819;-78
2023/08/02 07:04:08;;;;;;;0.60;0.45;;;;;18.40;98692.00;;;;10257300;28;20692;-77
2023/08/02 07:09:10;;;;;;;0.30;0.30;;;;;18.70;98684.00;;;;10279174;28;20215;-78
2023/08/02 07:14:11;;;;;;;0.50;0.30;;;;;18.60;98686.00;;;;10256773;28;20211;-77
2023/08/02 07:19:12;;;;;;;1.73;0.38;;;;;18.80;98684.00;;;;10259109;28;20273;-77
2023/08/02 07:24:14;;;;;;;0.40;0.30;;;;;19.10;98666.00;;;;10274943;28;20207;-77
2023/08/02 07:29:15;;;;;;;0.40;0.40;;;;;20.10;98666.00;;;;10252529;28;20221;-77
2023/08/02 07:34:17;;;;;;;0.93;0.40;;;;;20.20;98667.00;;;;10268281;28;21246;-76
2023/08/02 07:39:18;;;;;;;3.00;0.68;;;;;20.10;98667.00;;;;10249878;28;20223;-77
2023/08/02 07:44:19;;;;;;;3.58;1.17;;;;;20.30;98664.00;;;;10247957;28;20338;-78
2023/08/02 07:49:21;;;;;;;1.40;0.50;;;;;20.90;98655.00;;;;10249857;28;21811;-77
2023/08/02 07:54:22;;;;;;;3.15;0.80;;;;;21.30;98663.00;;;;10275567;28;20215;-78
2023/08/02 07:59:24;;;;;;;0.60;0.50;;;;;20.70;98667.00;;;;10259874;28;20508;-77
2023/08/02 08:04:25;;;;;;;0.47;0.47;;;;;20.30;98677.00;;;;10276560;28;20208;-79
2023/08/02 08:09:27;;;;;;;1.70;0.50;;;;;20.40;98659.00;;;;10275379;28;20547;-78
2023/08/02 08:14:29;;;;;;;0.75;0.40;;;;;21.00;98640.00;;;;10278187;28;20226;-77
2023/08/02 08:19:33;;;;;;;1.75;0.40;;;;;21.40;98648.00;;;;10259710;28;20704;-78
2023/08/02 08:24:34;;;;;;;1.77;0.90;;;;;21.70;98633.00;;;;10256699;28;21414;-77
2023/08/02 08:29:35;;;;;;;0.20;0.20;;;;;22.10;98630.00;;;;10274067;28;20588;-78
2023/08/02 08:34:37;;;;;;;1.70;0.88;;;;;22.10;98626.00;;;;10273691;28;21446;-78
2023/08/02 08:39:38;;;;;;;1.00;0.90;;;;;22.40;98601.00;;;;10257775;28;20227;-78
2023/08/02 08:44:39;;;;;;;0.80;0.80;;;;;23.10;98601.00;;;;10274618;28;20203;-78
2023/08/02 08:49:41;;;;;;;3.05;1.08;;;;;24.20;98597.00;;;;10255076;28;20211;-78
2023/08/02 08:54:44;;;;;;;2.85;1.08;;;;;24.20;98589.00;;;;10257722;28;20231;-78
2023/08/02 08:59:45;;;;;;;0.93;0.90;;;;;25.10;98575.00;;;;10257913;28;20692;-78
2023/08/02 09:04:48;;;;;;;1.67;0.75;;;;;25.40;98579.00;;;;10273316;28;20211;-78
2023/08/02 09:09:50;;;;;;;2.38;0.68;;;;;24.60;98570.00;;;;10276063;28;20217;-78
2023/08/02 09:15:02;;;;;;;5.05;1.00;;;;;24.80;98541.00;;;;10278115;28;20443;-78
2023/08/02 09:20:08;;;;;;;2.08;0.70;;;;;25.70;98527.00;;;;10246452;28;20785;-77
2023/08/02 09:25:29;;;;;;;0.90;0.60;;;;;24.70;98522.00;;;;10282819;28;20252;-78
2023/08/02 09:30:34;;;;;;;1.35;0.68;;;;;24.20;98517.00;;;;10281200;28;20211;-78
2023/08/02 09:35:45;;;;;;;0.65;0.65;;;;;23.20;98516.00;;;;10263570;28;20211;-78
2023/08/02 09:40:47;;;;;;;2.85;0.80;;;;;21.90;98550.00;;;;10282309;28;20230;-78
2023/08/02 09:46:29;;;;;;;1.00;0.90;;;;;21.40;98544.00;;;;10275937;28;20208;-78
2023/08/02 09:51:41;;;;;;;0.73;0.60;;;;;21.10;98545.00;;;;10278905;28;20246;-81
2023/08/02 09:56:43;;;;;;;1.88;0.90;;;;;20.90;98550.00;;;;10259016;28;20209;-81
2023/08/02 10:01:48;;;;;;;1.05;0.77;;;;;21.00;98540.00;;;;10242862;28;20662;-81
2023/08/02 10:06:55;;;;;;;2.58;1.00;;;;;23.50;98525.00;;;;10261440;28;20481;-80
2023/08/02 10:12:13;;;;;;;12.13;3.83;;;;;24.90;98534.00;;;;10263758;28;20345;-80
2023/08/02 10:17:16;;;;;;;4.30;1.38;;;;;23.30;98553.00;;;;10260047;28;20289;-82
2023/08/02 10:22:19;;;;;;;7.50;1.90;;;;;22.30;98543.00;;;;10246739;28;20215;-79
2023/08/02 10:27:21;;;;;;;4.53;1.90;;;;;22.00;98542.00;;;;10274784;28;20224;-79
2023/08/02 10:32:22;;;;;;;6.00;1.73;;;;;22.10;98542.00;;;;10260639;28;20211;-78
2023/08/02 10:37:56;;;;;;;7.40;1.85;;;;;21.50;98514.00;;;;10277386;28;21457;-78
2023/08/02 10:43:03;;;;;;;7.90;1.90;;;;;23.10;98525.00;;;;10277304;28;20223;-79
2023/08/02 10:48:28;;;;;;;7.57;1.95;;;;;24.30;98531.00;;;;10244553;28;20234;-78
2023/08/02 10:53:29;;;;;;;9.55;2.38;;;;;24.90;98537.00;;;;10242745;28;20227;-79
2023/08/02 10:58:49;;;;;;;7.85;2.38;;;;;25.30;98531.00;;;;10258377;28;20496;-78
2023/08/02 11:03:52;;;;;;;8.43;1.77;;;;;26.00;98525.00;;;;10277432;28;20311;-80
2023/08/02 11:08:53;;;;;;;7.15;2.22;;;;;26.20;98535.00;;;;10258704;28;20207;-79
2023/08/02 11:13:55;;;;;;;6.63;2.00;;;;;25.50;98523.00;;;;10258412;28;20497;-78
2023/08/02 11:18:57;;;;;;;10.85;2.13;;;;;25.90;98536.00;;;;10278402;28;20262;-79
2023/08/02 11:24:01;;;;;;;8.05;2.20;;;;;25.80;98527.00;;;;10275199;28;20236;-79
2023/08/02 11:29:07;;;;;;;7.43;2.15;;;;;25.90;98517.00;;;;10278634;28;20388;-79
2023/08/02 11:34:10;;;;;;;7.68;2.45;;;;;26.20;98503.00;;;;10276421;28;21662;-79
2023/08/02 11:39:16;;;;;;;10.15;2.35;;;;;26.90;98504.00;;;;10260307;28;20246;-78
2023/08/02 11:44:19;;;;;;;9.70;2.20;;;;;27.90;98500.00;;;;10276795;28;20294;-79
2023/08/02 11:49:20;;;;;;;6.88;2.15;;;;;28.20;98508.00;;;;10257632;28;20462;-78
2023/08/02 11:54:21;;;;;;;6.40;2.28;;;;;28.40;98503.00;;;;10259487;28;20219;-78
2023/08/02 11:59:23;;;;;;;6.05;1.63;;;;;28.10;98520.00;;;;10277737;28;20455;-78
2023/08/02 12:04:25;;;;;;;5.40;2.22;;;;;28.40;98500.00;;;;10276701;28;20898;-78
2023/08/02 12:09:42;;;;;;;4.25;1.42;;;;;28.20;98504.00;;;;10275489;28;20848;-78
2023/08/02 12:14:44;;;;;;;5.22;1.00;;;;;27.10;98490.00;;;;10275431;28;20597;-78
2023/08/02 12:19:45;;;;;;;5.43;1.45;;;;;26.50;98506.00;;;;10275162;28;20227;-77
2023/08/02 12:25:05;;;;;;;4.50;1.30;;;;;25.40;98501.00;;;;10276868;28;20235;-78
2023/08/02 12:30:15;;;;;;;5.60;1.58;;;;;25.00;98510.00;;;;10276922;28;20334;-78
2023/08/02 12:35:18;;;;;;;6.43;1.30;;;;;24.80;98501.00;;;;10258993;28;20556;-78
2023/08/02 12:40:19;;;;;;;14.45;2.17;;;;;26.20;98512.00;;;;10276951;28;20564;-78
2023/08/02 12:45:25;;;;;;;3.58;1.40;;;;;27.10;98528.00;;;;10255770;28;20445;-78
2023/08/02 12:50:26;;;;;;;3.72;1.20;;;;;26.70;98544.00;;;;10256482;28;20204;-76
2023/08/02 12:55:29;;;;;;;1.98;1.02;;;;;26.90;98553.00;;;;10274182;28;20505;-78
2023/08/02 13:00:31;;;;;;;4.43;0.82;;;;;27.10;98551.00;;;;10272604;28;21758;-77
2023/08/02 13:05:32;;;;;;;3.03;0.70;;;;;27.00;98544.00;;;;10274146;28;20485;-77
2023/08/02 13:10:33;;;;;;;3.33;0.77;;;;;26.70;98559.00;;;;10256283;28;20961;-77
2023/08/02 13:15:35;;;;;;;4.78;0.95;;;;;27.00;98541.00;;;;10275429;28;21246;-79
2023/08/02 13:20:36;;;;;;;3.88;0.80;;;;;27.00;98557.00;;;;10257443;28;20373;-78
2023/08/02 13:25:38;;;;;;;2.42;0.80;;;;;26.80;98555.00;;;;10276330;28;20230;-78
2023/08/02 13:30:39;;;;;;;2.58;0.70;;;;;26.20;98554.00;;;;10276310;28;20651;-79
2023/08/02 13:35:41;;;;;;;1.90;0.90;;;;;26.70;98549.00;;;;10274840;28;20482;-78
2023/08/02 13:40:42;;;;;;;4.68;1.17;;;;;26.80;98556.00;;;;10272498;28;20602;-78
2023/08/02 13:45:44;;;;;;;2.72;0.70;;;;;27.40;98548.00;;;;10273602;28;20285;-77
2023/08/02 13:50:45;;;;;;;3.65;1.10;;;;;27.60;98544.00;;;;10274333;28;20230;-79
2023/08/02 13:55:47;;;;;;;3.65;1.10;;;;;27.10;98556.00;;;;10258080;28;20214;-78
2023/08/02 14:00:48;;;;;;;3.75;0.88;;;;;27.00;98545.00;;;;10259862;28;20855;-78
2023/08/02 14:05:49;;;;;;;2.40;1.00;;;;;27.20;98548.00;;;;10282131;28;20215;-77
2023/08/02 14:10:51;;;;;;;3.63;0.90;;;;;27.20;98537.00;;;;10266290;28;20211;-77
2023/08/02 14:15:52;;;;;;;2.13;0.73;;;;;27.00;98565.00;;;;10283250;28;20321;-78
2023/08/02 14:20:54;;;;;;;3.60;1.02;;;;;26.20;98577.00;;;;10265542;28;20600;-79
2023/08/02 14:25:55;;;;;;;5.00;1.10;;;;;26.00;98564.00;;;;10282327;28;21332;-77
2023/08/02 14:30:59;;;;;;;4.07;1.15;;;;;25.70;98556.00;;;;10282769;28;20545;-77
2023/08/02 14:36:01;;;;;;;3.28;1.00;;;;;25.70;98549.00;;;;10281423;28;20212;-77
2023/08/02 14:41:03;;;;;;;3.25;0.90;;;;;26.00;98564.00;;;;10279347;28;20314;-77
2023/08/02 14:46:04;;;;;;;2.28;0.60;;;;;25.50;98568.00;;;;10281911;28;20222;-79
2023/08/02 14:51:06;;;;;;;2.47;0.88;;;;;24.70;98576.00;;;;10262818;28;20691;-79
2023/08/02 14:56:07;;;;;;;1.95;0.52;;;;;24.10;98574.00;;;;10280311;28;20269;-78
2023/08/02 15:01:08;;;;;;;1.42;0.75;;;;;24.10;98578.00;;;;10262471;28;20227;-78
2023/08/02 15:06:10;;;;;;;5.60;0.80;;;;;24.30;98580.00;;;;10279304;28;20242;-78
2023/08/02 15:11:11;;;;;;;1.40;0.63;;;;;23.80;98566.00;;;;10279595;28;20211;-77
2023/08/02 15:16:13;;;;;;;2.10;0.85;;;;;24.00;98569.00;;;;10281797;28;20322;-78
2023/08/02 15:21:14;;;;;;;1.83;0.80;;;;;24.10;98569.00;;;;10279540;28;20331;-78
2023/08/02 15:26:16;;;;;;;4.22;1.08;;;;;24.10;98563.00;;;;10264559;28;20218;-78
2023/08/02 15:31:17;;;;;;;2.90;1.02;;;;;23.50;98544.00;;;;10263456;28;20294;-78
2023/08/02 15:36:18;;;;;;;5.05;0.90;;;;;22.90;98561.00;;;;10279603;28;20330;-78
2023/08/02 15:41:20;;;;;;;5.50;1.17;;;;;22.70;98569.00;;;;10261665;28;20227;-77
2023/08/02 15:46:21;;;;;;;3.28;1.02;;;;;22.70;98573.00;;;;10282255;28;20570;-77
2023/08/02 15:51:22;;;;;;;5.93;1.30;;;;;22.00;98590.00;;;;10279056;28;20843;-77
2023/08/02 15:56:24;;;;;;;6.38;1.20;;;;;21.10;98603.00;;;;10261000;28;20609;-77
2023/08/02 16:01:26;;;;;;;3.45;1.27;;;;;20.50;98597.00;;;;10259617;28;20223;-78
2023/08/02 16:06:28;;;;;;;2.45;0.93;;;;;19.50;98606.00;;;;10258123;28;21307;-77
2023/08/02 16:11:29;;;;;;;2.13;0.88;;;;;20.90;98595.00;;;;10277517;28;20803;-77
2023/08/02 16:16:30;;;;;;;2.85;0.80;;;;;20.30;98591.00;;;;10259442;28;20615;-78
2023/08/02 16:21:31;;;;;;;7.53;1.15;;;;;20.20;98574.00;;;;10278832;28;20227;-78
2023/08/02 16:26:33;;;;;;;2.88;1.00;;;;;19.90;98579.00;;;;10276881;28;21867;-77
2023/08/02 16:31:34;;;;;;;3.05;0.70;;;;;19.70;98573.00;;;;10258711;28;20238;-76
2023/08/02 16:36:35;;;;;;;1.92;0.90;;;;;20.00;98570.00;;;;10258789;28;20246;-77
2023/08/02 16:41:37;;;;;;;1.65;0.90;;;;;20.10;98570.00;;;;10276165;28;20231;-77
2023/08/02 16:46:38;;;;;;;4.45;1.15;;;;;20.60;98573.00;;;;10275940;28;20211;-78
2023/08/02 16:51:39;;;;;;;2.55;1.00;;;;;20.60;98582.00;;;;10259217;28;20348;-78
2023/08/02 16:56:41;;;;;;;2.63;0.90;;;;;20.10;98576.00;;;;10279089;28;20226;-77
2023/08/02 17:01:43;;;;;;;3.75;0.93;;;;;19.60;98566.00;;;;10256894;28;20857;-77
2023/08/02 17:06:44;;;;;;;4.53;1.23;;;;;19.40;98548.00;;;;10242734;28;21019;-78
2023/08/02 17:11:46;;;;;;;5.03;1.27;;;;;19.80;98560.00;;;;10256278;28;21176;-77
2023/08/02 17:16:47;;;;;;;4.15;1.10;;;;;19.40;98553.00;;;;10256446;28;20527;-77
2023/08/02 17:21:48;;;;;;;3.53;1.13;;;;;19.20;98562.00;;;;10274968;28;20703;-78
2023/08/02 17:26:50;;;;;;;3.90;1.10;;;;;18.90;98570.00;;;;10273746;28;20801;-77
2023/08/02 17:31:51;;;;;;;3.60;1.00;;;;;18.60;98580.00;;;;10270734;28;20479;-77
2023/08/02 17:36:53;;;;;;;4.63;1.00;;;;;18.40;98573.00;;;;10271282;28;20218;-77
2023/08/02 17:41:54;;;;;;;5.22;1.40;;;;;18.30;98576.00;;;;10256720;28;20605;-79
2023/08/02 17:46:56;;;;;;;6.35;1.83;;;;;18.10;98551.00;;;;10265051;28;20211;-77
2023/08/02 17:51:57;;;;;;;7.38;1.27;;;;;18.20;98546.00;;;;10263483;28;20212;-77
2023/08/02 17:56:58;;;;;;;8.23;1.70;;;;;18.70;98536.00;;;;10275094;28;21606;-77
2023/08/02 18:02:00;;;;;;;5.13;1.00;;;;;18.20;98521.00;;;;10272152;28;20261;-77
2023/08/02 18:07:01;;;;;;;4.80;1.20;;;;;17.80;98524.00;;;;10254280;28;20216;-77
2023/08/02 18:12:03;;;;;;;9.25;1.73;;;;;17.60;98523.00;;;;10269549;28;20371;-77
2023/08/02 18:17:04;;;;;;;5.28;1.23;;;;;17.50;98518.00;;;;10271989;28;20307;-78
2023/08/02 18:22:06;;;;;;;6.43;1.33;;;;;17.80;98530.00;;;;10273697;28;20230;-78
2023/08/02 18:27:07;;;;;;;4.05;1.25;;;;;17.60;98535.00;;;;10253495;28;21328;-77
2023/08/02 18:32:08;;;;;;;4.93;1.15;;;;;17.50;98512.00;;;;10273037;28;20477;-77
2023/08/02 18:37:10;;;;;;;5.78;1.25;;;;;17.10;98501.00;;;;10270854;28;20322;-77
2023/08/02 18:42:11;;;;;;;5.13;1.33;;;;;17.00;98499.00;;;;10253055;28;21224;-76
2023/08/02 18:47:13;;;;;;;3.15;1.10;;;;;16.90;98504.00;;;;10270086;28;20317;-77
2023/08/02 18:52:14;;;;;;;5.30;1.15;;;;;16.80;98512.00;;;;10248018;28;20215;-77
2023/08/02 18:57:15;;;;;;;8.23;1.50;;;;;16.80;98510.00;;;;10248791;28;20230;-77
2023/08/02 19:02:17;;;;;;;8.73;1.60;;;;;16.80;98516.00;;;;10269381;28;20778;-77
2023/08/02 19:07:18;;;;;;;4.38;1.27;;;;;16.60;98502.00;;;;10270045;28;20306;-77
2023/08/02 19:12:21;;;;;;;8.38;1.45;;;;;16.50;98510.00;;;;10271036;28;20218;-77
2023/08/02 19:17:23;;;;;;;5.07;1.17;;;;;16.50;98500.00;;;;10267128;28;20448;-77
2023/08/02 19:22:24;;;;;;;6.70;1.58;;;;;16.50;98486.00;;;;10265541;28;20224;-77
2023/08/02 19:27:26;;;;;;;7.70;1.77;;;;;16.50;98489.00;;;;10248356;28;20313;-77
2023/08/02 19:32:27;;;;;;;9.07;1.40;;;;;16.50;98487.00;;;;10245128;28;20275;-77
2023/08/02 19:37:29;;;;;;;4.70;1.30;;;;;16.50;98508.00;;;;10265475;28;20222;-77
2023/08/02 19:42:38;;;;;;;7.78;2.03;;;;;16.50;98511.00;;;;10262280;28;20223;-76
2023/08/02 19:47:39;;;;;;;3.65;1.65;;;;;16.50;98499.00;;;;10267061;28;20256;-77
2023/08/02 19:52:41;;;;;;;4.20;0.98;;;;;16.40;98494.00;;;;10268472;28;20212;-76
2023/08/02 19:57:43;;;;;;;7.03;1.67;;;;;16.30;98499.00;;;;10245189;28;20203;-77
2023/08/02 20:02:44;;;;;;;3.80;1.13;;;;;16.30;98497.00;;;;10262174;28;20224;-77
2023/08/02 20:07:46;;;;;;;4.05;1.33;;;;;16.30;98507.00;;;;10261244;28;20390;-76
2023/08/02 20:12:48;;;;;;;4.00;1.10;;;;;16.30;98520.00;;;;10242979;28;20688;-77
2023/08/02 20:17:49;;;;;;;3.30;1.10;;;;;16.30;98523.00;;;;10234003;28;20211;-77
2023/08/02 20:22:52;;;;;;;11.80;1.30;;;;;16.20;98513.00;;;;10247381;28;20314;-77
2023/08/02 20:27:53;;;;;;;5.35;1.08;;;;;16.10;98516.00;;;;10264087;28;21263;-76
2023/08/02 20:32:55;;;;;;;3.65;1.25;;;;;16.00;98517.00;;;;10265320;28;20573;-77
2023/08/02 20:37:56;;;;;;;3.17;1.25;;;;;16.00;98530.00;;;;10228343;28;20235;-77
2023/08/02 20:42:58;;;;;;;2.53;1.00;;;;;16.10;98513.00;;;;10264545;28;20219;-77
2023/08/02 20:48:09;;;;;;;6.05;1.00;;;;;16.20;98505.00;;;;10246992;28;20258;-77
2023/08/02 20:53:15;;;;;;;2.30;1.20;;;;;16.20;98503.00;;;;10260401;28;20223;-76
2023/08/02 20:58:27;;;;;;;6.07;1.77;;;;;16.20;98511.00;;;;10248909;28;20307;-77
2023/08/02 21:03:28;;;;;;;6.43;1.40;;;;;16.20;98501.00;;;;10265955;28;21537;-77
2023/08/02 21:08:30;;;;;;;6.90;1.30;;;;;16.20;98502.00;;;;10264667;28;20720;-77
2023/08/02 21:13:32;;;;;;;4.00;1.30;;;;;16.20;98510.00;;;;10245661;28;20504;-78
2023/08/02 21:18:34;;;;;;;6.82;1.73;;;;;16.20;98504.00;;;;10245906;28;20308;-76
2023/08/02 21:23:42;;;;;;;5.50;1.35;;;;;16.00;98499.00;;;;10264520;28;20228;-78
2023/08/02 21:28:44;;;;;;;4.55;1.58;;;;;15.80;98495.00;;;;10261881;28;21610;-77
2023/08/02 21:33:46;;;;;;;7.70;1.88;;;;;15.70;98504.00;;;;10245045;28;20840;-77
2023/08/02 21:38:48;;;;;;;4.30;1.75;;;;;15.60;98511.00;;;;10248346;28;20292;-77
2023/08/02 21:43:49;;;;;;;4.95;1.65;;;;;15.60;98503.00;;;;10261048;28;20928;-77
2023/08/02 21:48:51;;;;;;;5.82;1.60;;;;;15.50;98495.00;;;;10266811;28;20259;-77
2023/08/02 21:53:54;;;;;;;6.13;2.05;;;;;15.50;98510.00;;;;10269266;28;22646;-77
2023/08/02 21:59:00;;;;;;;7.32;2.20;;;;;15.50;98508.00;;;;10268967;28;20212;-77
2023/08/02 22:04:04;;;;;;;6.18;1.85;;;;;15.60;98514.00;;;;10268276;28;21531;-77
2023/08/02 22:09:07;;;;;;;9.32;2.22;;;;;15.60;98511.00;;;;10250683;28;20250;-77
2023/08/02 22:14:10;;;;;;;5.68;2.15;;;;;15.60;98518.00;;;;10250862;28;20568;-77
2023/08/02 22:19:11;;;;;;;9.80;2.30;;;;;15.60;98538.00;;;;10229577;28;20211;-77
2023/08/02 22:24:13;;;;;;;7.20;2.22;;;;;15.60;98528.00;;;;10247292;28;20218;-77
2023/08/02 22:29:14;;;;;;;7.88;2.47;;;;;15.60;98539.00;;;;10273669;28;20635;-77
2023/08/02 22:34:15;;;;;;;7.75;2.30;;;;;15.60;98543.00;;;;10270192;28;21739;-76
2023/08/02 22:39:17;;;;;;;8.02;2.58;;;;;15.60;98558.00;;;;10267425;28;20211;-77
2023/08/02 22:44:18;;;;;;;5.38;2.33;;;;;15.70;98557.00;;;;10252144;28;20231;-77
2023/08/02 22:49:19;;;;;;;7.80;1.95;;;;;15.70;98564.00;;;;10267498;28;20207;-78
2023/08/02 22:54:41;;;;;;;4.25;2.03;;;;;15.70;98590.00;;;;10234327;28;20258;-77
2023/08/02 22:59:45;;;;;;;5.47;2.25;;;;;15.70;98593.00;;;;10256618;28;20223;-78
2023/08/02 23:04:50;;;;;;;7.05;2.20;;;;;15.60;98611.00;;;;10241705;28;20243;-78
2023/08/02 23:09:56;;;;;;;2.42;1.52;;;;;15.60;98618.00;;;;10272858;28;20277;-78
2023/08/02 23:14:58;;;;;;;5.93;1.60;;;;;15.60;98619.00;;;;10274159;28;21217;-77
2023/08/02 23:19:59;;;;;;;3.15;1.90;;;;;15.60;98652.00;;;;10240826;28;20933;-79
2023/08/02 23:25:00;;;;;;;8.98;2.25;;;;;15.60;98651.00;;;;10257164;28;20538;-77
2023/08/02 23:30:03;;;;;;;3.25;2.20;;;;;15.60;98677.00;;;;10258072;28;20429;-77
2023/08/02 23:35:05;;;;;;;6.30;2.35;;;;;15.60;98683.00;;;;10273313;28;21694;-78
2023/08/02 23:40:07;;;;;;;6.47;2.35;;;;;15.60;98703.00;;;;10272940;28;20839;-77
2023/08/02 23:45:08;;;;;;;7.47;2.70;;;;;15.70;98707.00;;;;10237463;28;20210;-77
2023/08/02 23:50:10;;;;;;;10.63;2.78;;;;;15.70;98706.00;;;;10265898;28;20228;-76
2023/08/02 23:55:11;;;;;;;12.85;3.65;;;;;15.70;98710.00;;;;10269560;28;20227;-77
